Hlavní strana
METAR-TAF:

METAR-TAF

Letiště :

Polokwane, Jihoafrická republika

zeměpisná šířka: 23-50-43S, zeměpisná délka: 29-27-31E, výška: 1242 m

Aktuální stav počasí

Zpráva byla vytvořena před 39 minutami, v 19:00 UTC
Severovýchodní vítr 6 kt
Teplota 14°C
Vlhkost vzduchu 82%
Tlak 1024 hPa

METAR: FAPP 051900Z AUTO 04006KT //// // ////// 14/11 Q1024

Čas: 21:39 (19:39 UTC)

Předpověď počasí

Zpráva byla vytvořena před 7 hodinami a 29 minutami, v 12:10 UTC
Předpověď platná od 05 v 10 UTC do 05 v 18 UTC
Východoseverovýchodní vítr 8 kt
Viditelnost 10 km a více
Polojasno ve výšce 2000 ft
Oblačno až skoro zataženo ve výšce 8000 ft

TAF: FAPP 051210Z 0510/0518 07008KT 9999 SCT020 BKN080 TX17/0512Z TN14/0518Z

Stav a předpovědi počasí z více než 4 000 letišť (zprávy METAR a TAF).

Červené a žluté tečky na mapě představují dostupné meteorologické stanice.

Když kurzor umístíte na tečku, zobrazí se název stanice.

Pak kliknutím zobrazíte stav a předpověď počasí.

Chcete-li změnit mapu, kliknutím na zelené tlačítko se znaménkem +mapu přiblížíte, kliknutím na zelené tlačítko se znaménkem – mapu oddálíte a kliknutím na zelené šipky přejdete na sousední mapy.


METAR-TAF: